sensor_id;sensor_type;location;lat;lon;timestamp;pressure;altitude;pressure_sealevel;temperature;humidity
51781;BME280;37844;57.126;24.288;2023-06-22T00:02:43;101335.75;;;22.38;100.00
51781;BME280;37844;57.126;24.288;2023-06-22T00:05:27;101329.81;;;22.32;100.00
51781;BME280;37844;57.126;24.288;2023-06-22T00:08:11;101323.69;;;22.31;100.00
51781;BME280;37844;57.126;24.288;2023-06-22T00:10:55;101321.28;;;22.23;100.00
51781;BME280;37844;57.126;24.288;2023-06-22T00:13:39;101326.34;;;22.30;100.00
51781;BME280;37844;57.126;24.288;2023-06-22T00:16:23;101318.78;;;22.17;100.00
51781;BME280;37844;57.126;24.288;2023-06-22T00:19:07;101319.63;;;22.18;100.00
51781;BME280;37844;57.126;24.288;2023-06-22T00:21:51;101311.81;;;22.16;100.00
51781;BME280;37844;57.126;24.288;2023-06-22T00:24:38;101309.53;;;22.02;100.00
51781;BME280;37844;57.126;24.288;2023-06-22T00:27:22;101306.13;;;21.99;100.00
51781;BME280;37844;57.126;24.288;2023-06-22T00:30:07;101311.56;;;21.91;100.00
51781;BME280;37844;57.126;24.288;2023-06-22T00:32:51;101301.06;;;21.91;100.00
51781;BME280;37844;57.126;24.288;2023-06-22T00:35:36;101307.84;;;22.00;100.00
51781;BME280;37844;57.126;24.288;2023-06-22T00:38:20;101305.22;;;22.00;100.00
51781;BME280;37844;57.126;24.288;2023-06-22T00:41:04;101303.50;;;21.99;100.00
51781;BME280;37844;57.126;24.288;2023-06-22T00:43:49;101298.28;;;21.97;100.00
51781;BME280;37844;57.126;24.288;2023-06-22T00:46:33;101290.31;;;22.02;100.00
51781;BME280;37844;57.126;24.288;2023-06-22T00:49:17;101292.88;;;22.03;100.00
51781;BME280;37844;57.126;24.288;2023-06-22T00:52:01;101284.97;;;22.05;100.00
51781;BME280;37844;57.126;24.288;2023-06-22T00:54:47;101277.09;;;22.05;100.00
51781;BME280;37844;57.126;24.288;2023-06-22T00:57:32;101277.00;;;22.08;100.00
51781;BME280;37844;57.126;24.288;2023-06-22T01:00:17;101284.13;;;22.03;100.00
51781;BME280;37844;57.126;24.288;2023-06-22T01:03:04;101282.38;;;22.03;100.00
51781;BME280;37844;57.126;24.288;2023-06-22T01:05:57;101283.41;;;21.98;100.00
51781;BME280;37844;57.126;24.288;2023-06-22T01:08:53;101279.53;;;22.11;100.00
51781;BME280;37844;57.126;24.288;2023-06-22T01:11:42;101276.06;;;22.11;100.00
51781;BME280;37844;57.126;24.288;2023-06-22T01:17:23;101275.66;;;21.92;100.00
51781;BME280;37844;57.126;24.288;2023-06-22T01:20:09;101263.16;;;22.01;100.00
51781;BME280;37844;57.126;24.288;2023-06-22T01:23:20;101270.88;;;22.08;100.00
51781;BME280;37844;57.126;24.288;2023-06-22T01:28:58;101265.88;;;21.98;100.00
51781;BME280;37844;57.126;24.288;2023-06-22T01:31:44;101251.91;;;21.98;100.00
51781;BME280;37844;57.126;24.288;2023-06-22T01:34:30;101254.63;;;21.95;100.00
51781;BME280;37844;57.126;24.288;2023-06-22T01:37:15;101261.59;;;21.94;100.00
51781;BME280;37844;57.126;24.288;2023-06-22T01:40:01;101258.84;;;21.99;100.00
51781;BME280;37844;57.126;24.288;2023-06-22T01:42:45;101256.19;;;22.02;100.00
51781;BME280;37844;57.126;24.288;2023-06-22T01:45:30;101246.47;;;22.04;100.00
51781;BME280;37844;57.126;24.288;2023-06-22T01:48:14;101241.16;;;22.07;100.00
51781;BME280;37844;57.126;24.288;2023-06-22T01:50:58;101241.81;;;22.14;100.00
51781;BME280;37844;57.126;24.288;2023-06-22T01:53:43;101240.72;;;22.24;100.00
51781;BME280;37844;57.126;24.288;2023-06-22T01:56:27;101241.66;;;22.20;100.00
51781;BME280;37844;57.126;24.288;2023-06-22T01:59:16;101238.97;;;22.23;100.00
51781;BME280;37844;57.126;24.288;2023-06-22T02:02:10;101233.06;;;22.15;100.00
51781;BME280;37844;57.126;24.288;2023-06-22T02:05:16;101236.63;;;22.12;100.00
51781;BME280;37844;57.126;24.288;2023-06-22T02:08:11;101241.75;;;22.17;100.00
51781;BME280;37844;57.126;24.288;2023-06-22T02:10:57;101234.53;;;22.27;100.00
51781;BME280;37844;57.126;24.288;2023-06-22T02:13:47;101231.88;;;22.28;100.00
51781;BME280;37844;57.126;24.288;2023-06-22T02:16:32;101228.94;;;22.37;100.00
51781;BME280;37844;57.126;24.288;2023-06-22T02:19:27;101217.47;;;22.41;100.00
51781;BME280;37844;57.126;24.288;2023-06-22T02:22:17;101223.44;;;22.47;100.00
51781;BME280;37844;57.126;24.288;2023-06-22T02:25:02;101193.22;;;22.32;100.00
51781;BME280;37844;57.126;24.288;2023-06-22T02:27:46;101229.63;;;22.46;100.00
51781;BME280;37844;57.126;24.288;2023-06-22T02:30:31;101233.22;;;22.41;100.00
51781;BME280;37844;57.126;24.288;2023-06-22T02:33:15;101235.00;;;22.41;100.00
51781;BME280;37844;57.126;24.288;2023-06-22T02:35:59;101227.09;;;22.42;100.00
51781;BME280;37844;57.126;24.288;2023-06-22T02:38:44;101235.75;;;22.44;100.00
51781;BME280;37844;57.126;24.288;2023-06-22T02:41:31;101229.75;;;22.41;100.00
51781;BME280;37844;57.126;24.288;2023-06-22T02:44:16;101220.91;;;22.43;100.00
51781;BME280;37844;57.126;24.288;2023-06-22T02:47:00;101225.34;;;22.41;100.00
51781;BME280;37844;57.126;24.288;2023-06-22T02:49:44;101219.13;;;22.44;100.00
51781;BME280;37844;57.126;24.288;2023-06-22T02:52:29;101215.63;;;22.45;100.00
51781;BME280;37844;57.126;24.288;2023-06-22T02:55:13;101220.53;;;22.56;100.00
51781;BME280;37844;57.126;24.288;2023-06-22T02:57:58;101205.06;;;22.47;100.00
51781;BME280;37844;57.126;24.288;2023-06-22T03:00:43;101221.53;;;22.52;100.00
51781;BME280;37844;57.126;24.288;2023-06-22T03:03:28;101214.44;;;22.55;100.00
51781;BME280;37844;57.126;24.288;2023-06-22T03:06:15;101240.69;;;22.57;100.00
51781;BME280;37844;57.126;24.288;2023-06-22T03:09:01;101226.53;;;22.61;100.00
51781;BME280;37844;57.126;24.288;2023-06-22T03:11:47;101240.53;;;22.61;100.00
51781;BME280;37844;57.126;24.288;2023-06-22T03:14:31;101236.06;;;22.63;100.00
51781;BME280;37844;57.126;24.288;2023-06-22T03:17:15;101237.13;;;22.58;100.00
51781;BME280;37844;57.126;24.288;2023-06-22T03:19:59;101237.16;;;22.56;100.00
51781;BME280;37844;57.126;24.288;2023-06-22T03:22:43;101240.63;;;22.58;100.00
51781;BME280;37844;57.126;24.288;2023-06-22T03:25:27;101234.84;;;22.47;100.00
51781;BME280;37844;57.126;24.288;2023-06-22T03:28:11;101232.28;;;22.44;100.00
51781;BME280;37844;57.126;24.288;2023-06-22T03:30:59;101223.25;;;22.54;100.00
51781;BME280;37844;57.126;24.288;2023-06-22T03:33:43;101216.94;;;22.60;100.00
51781;BME280;37844;57.126;24.288;2023-06-22T03:36:27;101221.22;;;22.62;100.00
51781;BME280;37844;57.126;24.288;2023-06-22T03:39:11;101213.34;;;22.62;100.00
51781;BME280;37844;57.126;24.288;2023-06-22T03:41:55;101211.69;;;22.60;100.00
51781;BME280;37844;57.126;24.288;2023-06-22T03:44:39;101210.59;;;22.67;100.00
51781;BME280;37844;57.126;24.288;2023-06-22T03:47:23;101208.00;;;22.65;100.00
51781;BME280;37844;57.126;24.288;2023-06-22T03:50:08;101212.25;;;22.70;100.00
51781;BME280;37844;57.126;24.288;2023-06-22T03:52:52;101210.84;;;22.58;100.00
51781;BME280;37844;57.126;24.288;2023-06-22T03:55:37;101208.09;;;22.62;100.00
51781;BME280;37844;57.126;24.288;2023-06-22T03:58:21;101207.81;;;22.72;100.00
51781;BME280;37844;57.126;24.288;2023-06-22T04:01:05;101209.66;;;22.68;100.00
51781;BME280;37844;57.126;24.288;2023-06-22T04:03:50;101209.47;;;22.76;100.00
51781;BME280;37844;57.126;24.288;2023-06-22T04:06:35;101210.22;;;22.79;100.00
51781;BME280;37844;57.126;24.288;2023-06-22T04:09:19;101204.94;;;22.79;100.00
51781;BME280;37844;57.126;24.288;2023-06-22T04:12:03;101206.72;;;22.79;100.00
51781;BME280;37844;57.126;24.288;2023-06-22T04:14:47;101216.38;;;22.78;100.00
51781;BME280;37844;57.126;24.288;2023-06-22T04:17:31;101219.28;;;22.69;100.00
51781;BME280;37844;57.126;24.288;2023-06-22T04:20:15;101212.25;;;22.70;100.00
51781;BME280;37844;57.126;24.288;2023-06-22T04:22:59;101215.50;;;22.78;100.00
51781;BME280;37844;57.126;24.288;2023-06-22T04:25:44;101222.63;;;22.74;100.00
51781;BME280;37844;57.126;24.288;2023-06-22T04:28:27;101224.41;;;22.74;100.00
51781;BME280;37844;57.126;24.288;2023-06-22T04:31:11;101223.59;;;22.72;100.00
51781;BME280;37844;57.126;24.288;2023-06-22T04:33:56;101229.13;;;22.62;100.00
51781;BME280;37844;57.126;24.288;2023-06-22T04:36:40;101235.44;;;22.57;100.00
51781;BME280;37844;57.126;24.288;2023-06-22T04:39:25;101227.94;;;22.43;100.00
51781;BME280;37844;57.126;24.288;2023-06-22T04:42:12;101224.38;;;22.44;100.00
51781;BME280;37844;57.126;24.288;2023-06-22T04:44:56;101221.69;;;22.47;100.00
51781;BME280;37844;57.126;24.288;2023-06-22T04:47:40;101218.88;;;22.53;100.00
51781;BME280;37844;57.126;24.288;2023-06-22T04:50:31;101214.28;;;22.61;100.00
51781;BME280;37844;57.126;24.288;2023-06-22T04:53:19;101229.16;;;22.61;100.00
51781;BME280;37844;57.126;24.288;2023-06-22T04:56:13;101229.91;;;22.66;100.00
51781;BME280;37844;57.126;24.288;2023-06-22T04:59:00;101216.91;;;22.61;100.00
51781;BME280;37844;57.126;24.288;2023-06-22T05:01:45;101222.53;;;22.77;100.00
51781;BME280;37844;57.126;24.288;2023-06-22T05:04:30;101221.41;;;22.86;100.00
51781;BME280;37844;57.126;24.288;2023-06-22T05:07:19;101211.16;;;23.06;100.00
51781;BME280;37844;57.126;24.288;2023-06-22T05:10:04;101214.41;;;23.15;100.00
51781;BME280;37844;57.126;24.288;2023-06-22T05:12:48;101212.34;;;23.24;100.00
51781;BME280;37844;57.126;24.288;2023-06-22T05:15:33;101212.03;;;23.34;100.00
51781;BME280;37844;57.126;24.288;2023-06-22T05:18:20;101209.75;;;23.23;100.00
51781;BME280;37844;57.126;24.288;2023-06-22T05:21:07;101216.59;;;23.28;100.00
51781;BME280;37844;57.126;24.288;2023-06-22T05:23:53;101220.53;;;23.42;100.00
51781;BME280;37844;57.126;24.288;2023-06-22T05:26:37;101227.41;;;23.46;100.00
51781;BME280;37844;57.126;24.288;2023-06-22T05:29:21;101229.53;;;23.35;100.00
51781;BME280;37844;57.126;24.288;2023-06-22T05:32:06;101247.00;;;23.37;100.00
51781;BME280;37844;57.126;24.288;2023-06-22T05:34:51;101230.41;;;23.35;100.00
51781;BME280;37844;57.126;24.288;2023-06-22T05:37:35;101241.22;;;23.26;100.00
51781;BME280;37844;57.126;24.288;2023-06-22T05:40:19;101247.78;;;23.13;100.00
51781;BME280;37844;57.126;24.288;2023-06-22T05:43:02;101240.13;;;23.05;100.00
51781;BME280;37844;57.126;24.288;2023-06-22T05:45:46;101235.09;;;22.97;100.00
51781;BME280;37844;57.126;24.288;2023-06-22T05:48:31;101239.81;;;22.86;100.00
51781;BME280;37844;57.126;24.288;2023-06-22T05:51:15;101247.53;;;22.92;100.00
51781;BME280;37844;57.126;24.288;2023-06-22T05:53:59;101244.22;;;22.85;100.00
51781;BME280;37844;57.126;24.288;2023-06-22T05:56:43;101247.00;;;22.79;100.00
51781;BME280;37844;57.126;24.288;2023-06-22T05:59:27;101227.78;;;22.77;100.00
51781;BME280;37844;57.126;24.288;2023-06-22T06:02:11;101232.47;;;22.68;100.00
51781;BME280;37844;57.126;24.288;2023-06-22T06:04:55;101243.22;;;22.60;100.00
51781;BME280;37844;57.126;24.288;2023-06-22T06:07:40;101236.97;;;22.64;100.00
51781;BME280;37844;57.126;24.288;2023-06-22T06:10:24;101245.94;;;22.57;100.00
51781;BME280;37844;57.126;24.288;2023-06-22T06:13:09;101249.81;;;22.43;100.00
51781;BME280;37844;57.126;24.288;2023-06-22T06:15:53;101250.72;;;22.42;100.00
51781;BME280;37844;57.126;24.288;2023-06-22T06:18:39;101246.47;;;22.37;100.00
51781;BME280;37844;57.126;24.288;2023-06-22T06:21:23;101254.25;;;22.41;100.00
51781;BME280;37844;57.126;24.288;2023-06-22T06:24:07;101245.88;;;22.27;100.00
51781;BME280;37844;57.126;24.288;2023-06-22T06:26:51;101257.66;;;22.11;100.00
51781;BME280;37844;57.126;24.288;2023-06-22T06:29:36;101263.03;;;22.06;100.00
51781;BME280;37844;57.126;24.288;2023-06-22T06:32:20;101257.91;;;22.01;100.00
51781;BME280;37844;57.126;24.288;2023-06-22T06:35:06;101272.03;;;21.97;100.00
51781;BME280;37844;57.126;24.288;2023-06-22T06:37:50;101277.66;;;21.82;100.00
51781;BME280;37844;57.126;24.288;2023-06-22T06:40:34;101281.03;;;21.87;100.00
51781;BME280;37844;57.126;24.288;2023-06-22T06:43:18;101279.78;;;21.68;100.00
51781;BME280;37844;57.126;24.288;2023-06-22T06:46:02;101291.00;;;21.74;100.00
51781;BME280;37844;57.126;24.288;2023-06-22T06:48:47;101297.13;;;21.73;100.00
51781;BME280;37844;57.126;24.288;2023-06-22T06:51:31;101283.22;;;21.70;100.00
51781;BME280;37844;57.126;24.288;2023-06-22T06:54:15;101277.19;;;21.66;100.00
51781;BME280;37844;57.126;24.288;2023-06-22T06:57:02;101269.81;;;21.80;100.00
51781;BME280;37844;57.126;24.288;2023-06-22T06:59:47;101253.00;;;21.89;100.00
51781;BME280;37844;57.126;24.288;2023-06-22T07:02:31;101246.75;;;21.95;100.00
51781;BME280;37844;57.126;24.288;2023-06-22T07:05:18;101246.69;;;21.96;100.00
51781;BME280;37844;57.126;24.288;2023-06-22T07:08:03;101255.63;;;21.89;100.00
51781;BME280;37844;57.126;24.288;2023-06-22T07:10:47;101247.16;;;21.78;100.00
51781;BME280;37844;57.126;24.288;2023-06-22T07:13:31;101241.78;;;21.83;100.00
51781;BME280;37844;57.126;24.288;2023-06-22T07:16:15;101234.53;;;21.92;100.00
51781;BME280;37844;57.126;24.288;2023-06-22T07:19:00;101232.41;;;22.07;100.00
51781;BME280;37844;57.126;24.288;2023-06-22T07:21:52;101229.75;;;22.08;100.00
51781;BME280;37844;57.126;24.288;2023-06-22T07:24:37;101227.13;;;22.08;100.00
51781;BME280;37844;57.126;24.288;2023-06-22T07:27:21;101227.81;;;22.15;100.00
51781;BME280;37844;57.126;24.288;2023-06-22T07:30:06;101224.38;;;22.11;100.00
51781;BME280;37844;57.126;24.288;2023-06-22T07:32:50;101225.84;;;22.23;100.00
51781;BME280;37844;57.126;24.288;2023-06-22T07:35:34;101219.50;;;22.32;100.00
51781;BME280;37844;57.126;24.288;2023-06-22T07:38:18;101220.22;;;22.37;100.00
51781;BME280;37844;57.126;24.288;2023-06-22T07:41:02;101219.72;;;22.24;100.00
51781;BME280;37844;57.126;24.288;2023-06-22T07:43:49;101208.47;;;22.17;100.00
51781;BME280;37844;57.126;24.288;2023-06-22T07:46:33;101202.31;;;22.18;100.00
51781;BME280;37844;57.126;24.288;2023-06-22T07:49:17;101220.19;;;22.38;100.00
51781;BME280;37844;57.126;24.288;2023-06-22T07:52:01;101199.53;;;22.26;100.00
51781;BME280;37844;57.126;24.288;2023-06-22T07:54:46;101219.16;;;22.11;100.00
51781;BME280;37844;57.126;24.288;2023-06-22T07:57:31;101216.78;;;22.02;100.00
51781;BME280;37844;57.126;24.288;2023-06-22T08:00:18;101223.38;;;21.84;100.00
51781;BME280;37844;57.126;24.288;2023-06-22T08:03:02;101230.84;;;21.99;100.00
51781;BME280;37844;57.126;24.288;2023-06-22T08:05:48;101230.94;;;21.96;100.00
51781;BME280;37844;57.126;24.288;2023-06-22T08:08:33;101224.06;;;22.25;100.00
51781;BME280;37844;57.126;24.288;2023-06-22T08:11:18;101226.50;;;22.31;100.00
51781;BME280;37844;57.126;24.288;2023-06-22T08:14:02;101226.31;;;22.37;100.00
51781;BME280;37844;57.126;24.288;2023-06-22T08:16:46;101229.78;;;22.39;100.00
51781;BME280;37844;57.126;24.288;2023-06-22T08:19:31;101244.31;;;22.21;100.00
51781;BME280;37844;57.126;24.288;2023-06-22T08:22:18;101229.63;;;22.13;100.00
51781;BME280;37844;57.126;24.288;2023-06-22T08:25:06;101233.78;;;22.21;100.00
51781;BME280;37844;57.126;24.288;2023-06-22T08:27:51;101236.31;;;22.25;100.00
51781;BME280;37844;57.126;24.288;2023-06-22T08:30:38;101228.16;;;22.35;100.00
51781;BME280;37844;57.126;24.288;2023-06-22T08:33:23;101238.25;;;22.49;100.00
51781;BME280;37844;57.126;24.288;2023-06-22T08:36:12;101224.06;;;22.84;100.00
51781;BME280;37844;57.126;24.288;2023-06-22T08:38:58;101228.66;;;22.78;100.00
51781;BME280;37844;57.126;24.288;2023-06-22T08:41:47;101218.22;;;22.75;100.00
51781;BME280;37844;57.126;24.288;2023-06-22T08:44:31;101219.06;;;22.77;100.00
51781;BME280;37844;57.126;24.288;2023-06-22T08:47:15;101212.69;;;22.84;100.00
51781;BME280;37844;57.126;24.288;2023-06-22T08:49:59;101222.59;;;22.76;100.00
51781;BME280;37844;57.126;24.288;2023-06-22T08:52:46;101224.13;;;22.53;100.00
51781;BME280;37844;57.126;24.288;2023-06-22T08:55:30;101227.88;;;22.44;100.00
51781;BME280;37844;57.126;24.288;2023-06-22T08:58:16;101231.16;;;22.53;100.00
51781;BME280;37844;57.126;24.288;2023-06-22T09:00:59;101230.38;;;22.49;100.00
51781;BME280;37844;57.126;24.288;2023-06-22T09:03:45;101226.72;;;22.55;100.00
51781;BME280;37844;57.126;24.288;2023-06-22T09:06:39;101228.78;;;22.43;100.00
51781;BME280;37844;57.126;24.288;2023-06-22T09:09:28;101227.84;;;22.46;100.00
51781;BME280;37844;57.126;24.288;2023-06-22T09:12:12;101228.56;;;22.51;100.00
51781;BME280;37844;57.126;24.288;2023-06-22T09:14:56;101218.06;;;22.51;100.00
51781;BME280;37844;57.126;24.288;2023-06-22T09:17:43;101234.19;;;22.37;100.00
51781;BME280;37844;57.126;24.288;2023-06-22T09:20:27;101224.63;;;22.36;100.00
51781;BME280;37844;57.126;24.288;2023-06-22T09:23:11;101230.69;;;22.38;100.00
51781;BME280;37844;57.126;24.288;2023-06-22T09:25:55;101227.94;;;22.43;100.00
51781;BME280;37844;57.126;24.288;2023-06-22T09:28:39;101226.63;;;22.58;100.00
51781;BME280;37844;57.126;24.288;2023-06-22T09:31:23;101226.97;;;22.75;100.00
51781;BME280;37844;57.126;24.288;2023-06-22T09:36:54;101221.88;;;23.00;100.00
51781;BME280;37844;57.126;24.288;2023-06-22T09:39:39;101227.44;;;23.18;100.00
51781;BME280;37844;57.126;24.288;2023-06-22T09:42:23;101221.78;;;23.30;100.00
51781;BME280;37844;57.126;24.288;2023-06-22T09:45:07;101226.03;;;23.34;100.00
51781;BME280;37844;57.126;24.288;2023-06-22T09:47:51;101221.31;;;23.45;100.00
51781;BME280;37844;57.126;24.288;2023-06-22T09:50:36;101215.19;;;23.45;100.00
51781;BME280;37844;57.126;24.288;2023-06-22T09:53:21;101210.88;;;23.42;100.00
51781;BME280;37844;57.126;24.288;2023-06-22T09:56:05;101224.38;;;23.32;100.00
51781;BME280;37844;57.126;24.288;2023-06-22T09:58:50;101227.25;;;23.24;100.00
51781;BME280;37844;57.126;24.288;2023-06-22T10:01:36;101226.91;;;23.35;100.00
51781;BME280;37844;57.126;24.288;2023-06-22T10:04:20;101231.53;;;23.28;100.00
51781;BME280;37844;57.126;24.288;2023-06-22T10:07:04;101228.94;;;23.26;100.00
51781;BME280;37844;57.126;24.288;2023-06-22T10:09:49;101227.25;;;23.24;100.00
51781;BME280;37844;57.126;24.288;2023-06-22T10:12:33;101241.47;;;23.18;100.00
51781;BME280;37844;57.126;24.288;2023-06-22T10:15:17;101243.44;;;23.12;100.00
51781;BME280;37844;57.126;24.288;2023-06-22T10:18:01;101249.09;;;22.98;100.00
51781;BME280;37844;57.126;24.288;2023-06-22T10:20:48;101238.56;;;22.98;100.00
51781;BME280;37844;57.126;24.288;2023-06-22T10:23:32;101239.69;;;22.89;100.00
51781;BME280;37844;57.126;24.288;2023-06-22T10:26:16;101244.63;;;23.01;100.00
51781;BME280;37844;57.126;24.288;2023-06-22T10:29:02;101242.75;;;23.05;100.00
51781;BME280;37844;57.126;24.288;2023-06-22T10:31:46;101241.38;;;23.21;100.00
51781;BME280;37844;57.126;24.288;2023-06-22T10:34:30;101246.47;;;22.98;100.00
51781;BME280;37844;57.126;24.288;2023-06-22T10:37:14;101236.91;;;22.95;100.00
51781;BME280;37844;57.126;24.288;2023-06-22T10:39:58;101238.56;;;22.98;100.00
51781;BME280;37844;57.126;24.288;2023-06-22T10:42:43;101245.41;;;23.05;100.00
51781;BME280;37844;57.126;24.288;2023-06-22T10:45:27;101248.69;;;23.12;100.00
51781;BME280;37844;57.126;24.288;2023-06-22T10:48:11;101241.81;;;23.07;100.00
51781;BME280;37844;57.126;24.288;2023-06-22T10:50:55;101243.44;;;23.12;100.00
51781;BME280;37844;57.126;24.288;2023-06-22T10:53:39;101234.44;;;23.19;100.00
51781;BME280;37844;57.126;24.288;2023-06-22T10:56:23;101242.09;;;23.26;100.00
51781;BME280;37844;57.126;24.288;2023-06-22T10:59:07;101236.44;;;23.11;100.00
51781;BME280;37844;57.126;24.288;2023-06-22T11:01:52;101234.22;;;23.25;100.00
51781;BME280;37844;57.126;24.288;2023-06-22T11:04:37;101236.53;;;23.36;100.00
51781;BME280;37844;57.126;24.288;2023-06-22T11:07:21;101231.38;;;23.33;100.00
51781;BME280;37844;57.126;24.288;2023-06-22T11:10:05;101239.88;;;23.41;100.00
51781;BME280;37844;57.126;24.288;2023-06-22T11:12:51;101241.66;;;23.40;100.00
51781;BME280;37844;57.126;24.288;2023-06-22T11:15:40;101234.78;;;23.35;100.00
51781;BME280;37844;57.126;24.288;2023-06-22T11:18:25;101243.50;;;23.37;100.00
51781;BME280;37844;57.126;24.288;2023-06-22T11:21:09;101252.56;;;23.28;100.00
51781;BME280;37844;57.126;24.288;2023-06-22T11:23:54;101237.06;;;23.19;100.00
51781;BME280;37844;57.126;24.288;2023-06-22T11:26:38;101246.63;;;23.21;100.00
51781;BME280;37844;57.126;24.288;2023-06-22T11:29:23;101238.25;;;23.08;100.00
51781;BME280;37844;57.126;24.288;2023-06-22T11:32:07;101237.22;;;23.14;100.00
51781;BME280;37844;57.126;24.288;2023-06-22T11:34:51;101237.41;;;23.08;100.00
51781;BME280;37844;57.126;24.288;2023-06-22T11:37:35;101242.97;;;22.97;100.00
51781;BME280;37844;57.126;24.288;2023-06-22T11:40:20;101252.72;;;22.94;100.00
51781;BME280;37844;57.126;24.288;2023-06-22T11:43:04;101249.97;;;22.97;100.00
51781;BME280;37844;57.126;24.288;2023-06-22T11:45:48;101250.19;;;22.91;100.00
51781;BME280;37844;57.126;24.288;2023-06-22T11:48:32;101246.72;;;22.89;100.00
51781;BME280;37844;57.126;24.288;2023-06-22T11:51:16;101259.53;;;23.01;100.00
51781;BME280;37844;57.126;24.288;2023-06-22T11:54:01;101255.94;;;23.03;100.00
51781;BME280;37844;57.126;24.288;2023-06-22T11:56:47;101248.84;;;23.07;100.00
51781;BME280;37844;57.126;24.288;2023-06-22T11:59:31;101258.69;;;23.28;100.00
51781;BME280;37844;57.126;24.288;2023-06-22T12:02:19;101252.84;;;23.47;100.00
51781;BME280;37844;57.126;24.288;2023-06-22T12:05:06;101249.94;;;23.55;100.00
51781;BME280;37844;57.126;24.288;2023-06-22T12:07:55;101239.06;;;23.92;100.00
51781;BME280;37844;57.126;24.288;2023-06-22T12:10:40;101237.75;;;24.29;100.00
51781;BME280;37844;57.126;24.288;2023-06-22T12:13:36;101240.97;;;24.37;100.00
51781;BME280;37844;57.126;24.288;2023-06-22T12:16:21;101240.00;;;24.40;100.00
51781;BME280;37844;57.126;24.288;2023-06-22T12:19:05;101241.00;;;24.61;100.00
51781;BME280;37844;57.126;24.288;2023-06-22T12:21:49;101249.78;;;24.61;100.00
51781;BME280;37844;57.126;24.288;2023-06-22T12:24:33;101248.78;;;24.64;100.00
51781;BME280;37844;57.126;24.288;2023-06-22T12:27:17;101251.09;;;24.73;100.00
51781;BME280;37844;57.126;24.288;2023-06-22T12:30:03;101251.88;;;24.75;100.00
51781;BME280;37844;57.126;24.288;2023-06-22T12:32:48;101251.41;;;24.87;100.00
51781;BME280;37844;57.126;24.288;2023-06-22T12:35:32;101245.53;;;25.03;100.00
51781;BME280;37844;57.126;24.288;2023-06-22T12:38:17;101248.16;;;25.03;100.00
51781;BME280;37844;57.126;24.288;2023-06-22T12:41:04;101250.00;;;25.01;100.00
51781;BME280;37844;57.126;24.288;2023-06-22T12:43:48;101245.66;;;25.00;100.00
51781;BME280;37844;57.126;24.288;2023-06-22T12:46:32;101247.25;;;25.04;100.00
51781;BME280;37844;57.126;24.288;2023-06-22T12:49:21;101228.19;;;24.97;100.00
51781;BME280;37844;57.126;24.288;2023-06-22T12:52:11;101250.13;;;24.97;100.00
51781;BME280;37844;57.126;24.288;2023-06-22T12:54:55;101249.69;;;24.86;100.00
51781;BME280;37844;57.126;24.288;2023-06-22T12:57:39;101250.63;;;24.62;100.00
51781;BME280;37844;57.126;24.288;2023-06-22T13:00:23;101253.81;;;24.46;100.00
51781;BME280;37844;57.126;24.288;2023-06-22T13:03:07;101254.16;;;24.37;100.00
51781;BME280;37844;57.126;24.288;2023-06-22T13:05:52;101256.47;;;24.21;100.00
51781;BME280;37844;57.126;24.288;2023-06-22T13:08:36;101250.72;;;24.10;100.00
51781;BME280;37844;57.126;24.288;2023-06-22T13:11:21;101245.25;;;24.16;100.00
51781;BME280;37844;57.126;24.288;2023-06-22T13:14:05;101253.84;;;24.21;100.00
51781;BME280;37844;57.126;24.288;2023-06-22T13:16:49;101240.91;;;24.39;100.00
51781;BME280;37844;57.126;24.288;2023-06-22T13:19:33;101244.41;;;24.63;100.00
51781;BME280;37844;57.126;24.288;2023-06-22T13:22:32;101258.16;;;24.94;100.00
51781;BME280;37844;57.126;24.288;2023-06-22T13:25:17;101261.59;;;24.96;100.00
51781;BME280;37844;57.126;24.288;2023-06-22T13:28:03;101267.06;;;24.92;100.00
51781;BME280;37844;57.126;24.288;2023-06-22T13:30:50;101257.25;;;24.95;100.00
51781;BME280;37844;57.126;24.288;2023-06-22T13:33:35;101255.97;;;25.06;100.00
51781;BME280;37844;57.126;24.288;2023-06-22T13:36:19;101254.44;;;25.22;100.00
51781;BME280;37844;57.126;24.288;2023-06-22T13:39:04;101260.44;;;25.27;100.00
51781;BME280;37844;57.126;24.288;2023-06-22T13:41:48;101259.25;;;25.34;100.00
51781;BME280;37844;57.126;24.288;2023-06-22T13:44:33;101265.91;;;25.23;100.00
51781;BME280;37844;57.126;24.288;2023-06-22T13:47:17;101259.69;;;25.24;100.00
51781;BME280;37844;57.126;24.288;2023-06-22T13:50:03;101265.94;;;24.97;100.00
51781;BME280;37844;57.126;24.288;2023-06-22T13:52:46;101275.81;;;24.92;100.00
51781;BME280;37844;57.126;24.288;2023-06-22T13:55:31;101280.16;;;24.93;100.00
51781;BME280;37844;57.126;24.288;2023-06-22T13:58:15;101285.72;;;25.09;100.00
51781;BME280;37844;57.126;24.288;2023-06-22T14:00:59;101279.63;;;25.07;100.00
51781;BME280;37844;57.126;24.288;2023-06-22T14:03:43;101289.00;;;24.92;100.00
51781;BME280;37844;57.126;24.288;2023-06-22T14:06:31;101292.22;;;24.77;100.00
51781;BME280;37844;57.126;24.288;2023-06-22T14:09:15;101291.53;;;24.95;100.00
51781;BME280;37844;57.126;24.288;2023-06-22T14:12:06;101296.94;;;24.92;100.00